METAR Data
IDs: Format: Raw Decoded Include TAF

Data at: 0239 UTC 29 Nov 2020

METAR for:KDBQ (Dubuque Rgnl, IA, US)
Text:KDBQ 290153Z 22008KT 10SM CLR 04/00 A2998 RMK AO2 SLP162 T00440000
Temperature: 4.4°C ( 40°F)
Dewpoint: 0.0°C ( 32°F) [RH = 73%]
Pressure (altimeter):29.98 inches Hg (1015.3 mb) [Sea level pressure: 1016.2 mb]
Winds:from the SW (220 degrees) at 9 MPH (8 knots; 4.1 m/s)
Visibility:10 or more sm (16+ km)
Ceiling:at least 12,000 feet AGL
Clouds:sky clear below 12,000 feet AGL